Time;durP1;ratioP1;P1;durP2;ratioP2;P2;SDS_P1;SDS_P2;PMS_P1;PMS_P2;Temp;Humidity;BMP_temperature;BMP_pressure;BME280_temperature;BME280_humidity;BME280_pressure;Samples;Min_cycle;Max_cycle;Signal;HPM_P1;HPM_P2
2022/03/14 00:01:39;;;;;;;4.65;2.80;;;7.40;99.90;;;;;;5952891;24;20024;-85
2022/03/14 00:07:53;;;;;;;6.95;4.15;;;7.10;99.90;;;;;;5978934;24;20095;-85
2022/03/14 00:10:40;;;;;;;7.55;4.25;;;7.90;99.90;;;;;;5953883;24;20060;-85
2022/03/14 00:17:52;;;;;;;4.72;3.50;;;8.20;99.90;;;;;;5789628;24;20424;-83
2022/03/14 00:21:07;;;;;;;6.35;3.38;;;7.00;99.90;;;;;;5809545;24;20093;-84
2022/03/14 00:24:31;;;;;;;6.30;2.85;;;6.60;99.90;;;;;;5816340;24;20030;-85
2022/03/14 00:38:52;;;;;;;8.32;4.40;;;6.80;99.90;;;;;;5869724;24;20051;-84
2022/03/14 00:42:25;;;;;;;;;;;;;;;;;;;;;
2022/03/14 00:53:07;;;;;;;9.40;5.10;;;6.60;99.90;;;;;;5923857;24;20024;-84
2022/03/14 00:55:38;;;;;;;8.73;5.18;;;6.70;99.90;;;;;;5949650;24;20024;-85
2022/03/14 00:58:33;;;;;;;8.30;4.38;;;6.60;99.90;;;;;;5928106;24;20025;-84
2022/03/14 01:09:17;;;;;;;6.47;3.80;;;6.70;99.90;;;;;;6007409;23;20035;-85
2022/03/14 01:12:19;;;;;;;7.03;3.90;;;7.10;99.90;;;;;;5923858;24;20068;-85
2022/03/14 01:19:38;;;;;;;6.90;3.97;;;6.70;99.90;;;;;;5943381;24;20476;-84
2022/03/14 01:22:09;;;;;;;;;;;;;;;;;;;;;
2022/03/14 01:25:01;;;;;;;;;;;;;;;;;;;;;
2022/03/14 01:27:54;;;;;;;7.40;4.35;;;6.50;99.90;;;;;;6007581;23;20103;-84
2022/03/14 01:30:52;;;;;;;7.90;4.43;;;6.80;99.90;;;;;;5985391;23;20016;-85
2022/03/14 01:34:34;;;;;;;6.72;3.88;;;7.10;99.90;;;;;;6042244;22;20016;-85
2022/03/14 01:38:11;;;;;;;;;;;;;;;;;;;;;
2022/03/14 01:49:36;;;;;;;8.13;4.32;;;7.30;99.90;;;;;;5870793;24;20113;-86
2022/03/14 01:52:23;;;;;;;7.50;4.45;;;6.60;99.90;;;;;;5803268;24;20022;-85
2022/03/14 01:55:08;;;;;;;5.63;3.45;;;6.60;99.90;;;;;;5844241;24;20046;-85
2022/03/14 02:07:48;;;;;;;8.63;4.20;;;6.70;99.90;;;;;;5870608;24;20135;-85
2022/03/14 02:10:44;;;;;;;6.63;3.50;;;8.20;99.90;;;;;;5866540;24;20020;-85
2022/03/14 02:13:24;;;;;;;;;;;;;;;;;;;;;
2022/03/14 02:19:55;;;;;;;6.88;3.88;;;6.90;99.90;;;;;;6029885;23;20053;-85
2022/03/14 02:32:19;;;;;;;7.05;3.83;;;6.90;99.90;;;;;;6272896;22;20439;-84
2022/03/14 02:35:16;;;;;;;7.97;4.40;;;6.80;99.90;;;;;;6245737;22;20407;-84
2022/03/14 02:38:01;;;;;;;8.05;3.65;;;6.70;99.90;;;;;;6274475;22;20054;-84
2022/03/14 02:40:53;;;;;;;5.80;3.70;;;6.80;99.90;;;;;;6243078;22;20042;-84
2022/03/14 02:43:46;;;;;;;;;;;;;;;;;;;;;
2022/03/14 02:46:31;;;;;;;;;;;;;;;;;;;;;
2022/03/14 02:49:34;;;;;;;6.82;4.03;;;8.00;99.90;;;;;;6246074;22;20019;-84
2022/03/14 02:52:11;;;;;;;7.15;3.50;;;6.80;99.90;;;;;;6221329;22;20055;-84
2022/03/14 02:54:56;;;;;;;6.38;3.72;;;6.80;99.90;;;;;;6249760;22;20407;-84
2022/03/14 02:57:33;;;;;;;7.40;3.88;;;6.90;99.90;;;;;;6187161;23;20013;-84
2022/03/14 03:04:22;;;;;;;;;;;;;;;;;;;;;
2022/03/14 03:07:52;;;;;;;6.15;3.53;;;6.90;99.90;;;;;;5951773;24;20031;-85
2022/03/14 03:11:15;;;;;;;6.50;3.80;;;7.60;99.90;;;;;;5820653;24;20053;-85
2022/03/14 04:41:38;;;;;;;;;;;;;;;;;;;;;
2022/03/14 05:12:24;;;;;;;;;;;;;;;;;;;;;
2022/03/14 05:34:40;;;;;;;3.70;2.10;;;7.00;99.90;;;;;;6253655;22;20025;-84
2022/03/14 05:37:32;;;;;;;4.40;2.35;;;7.90;99.90;;;;;;6214525;23;20059;-83
2022/03/14 05:39:58;;;;;;;4.47;2.38;;;6.90;99.90;;;;;;6170457;23;20324;-84
2022/03/14 05:42:59;;;;;;;4.97;2.47;;;7.00;99.90;;;;;;6214703;23;20108;-85
2022/03/14 05:59:41;;;;;;;3.60;1.70;;;8.20;99.90;;;;;;5985127;23;20070;-83
2022/03/14 06:03:17;;;;;;;3.53;1.80;;;6.80;99.90;;;;;;5989888;23;20027;-84
2022/03/14 06:26:37;;;;;;;;;;;;;;;;;;;;;
2022/03/14 06:42:46;;;;;;;;;;;;;;;;;;;;;
2022/03/14 06:49:52;;;;;;;;;;;;;;;;;;;;;
2022/03/14 06:53:41;;;;;;;1.40;0.70;;;7.10;99.90;;;;;;5994715;23;20027;-83
2022/03/14 07:05:17;;;;;;;;;;;;;;;;;;;;;
2022/03/14 07:26:58;;;;;;;2.07;0.90;;;7.80;99.90;;;;;;6239667;22;20402;-83
2022/03/14 07:33:18;;;;;;;1.20;0.60;;;8.20;99.90;;;;;;6197006;22;20100;-82
2022/03/14 07:36:27;;;;;;;1.23;0.65;;;8.80;99.90;;;;;;6218114;23;20339;-83
2022/03/14 07:39:29;;;;;;;1.00;0.68;;;7.80;99.90;;;;;;6234012;23;20012;-82
2022/03/14 07:42:50;;;;;;;1.10;0.60;;;8.60;99.90;;;;;;6244468;23;20024;-83
2022/03/14 07:46:02;;;;;;;1.20;0.70;;;8.20;99.90;;;;;;6166417;23;20094;-83
2022/03/14 07:52:33;;;;;;;2.25;0.73;;;8.20;99.90;;;;;;6211945;23;20148;-82
2022/03/14 07:55:44;;;;;;;1.08;0.70;;;8.30;99.90;;;;;;6211933;23;20020;-82
2022/03/14 07:58:25;;;;;;;0.88;0.60;;;8.40;99.90;;;;;;6113917;23;20371;-82
2022/03/14 08:10:45;;;;;;;1.38;0.70;;;8.40;99.90;;;;;;6211057;23;20031;-82
2022/03/14 08:13:41;;;;;;;1.48;0.90;;;8.60;99.90;;;;;;6185306;23;20016;-83
2022/03/14 08:16:32;;;;;;;1.75;0.82;;;8.60;99.90;;;;;;6190763;22;20119;-82
2022/03/14 08:19:53;;;;;;;1.67;0.80;;;8.60;99.90;;;;;;6189223;23;20024;-82
2022/03/14 08:23:34;;;;;;;1.63;0.93;;;8.70;99.90;;;;;;6151915;23;20021;-82
2022/03/14 08:37:45;;;;;;;2.50;1.30;;;8.90;99.90;;;;;;5951404;24;20348;-82
2022/03/14 08:40:49;;;;;;;2.10;1.00;;;8.90;99.90;;;;;;5912495;24;20417;-82
2022/03/14 08:44:29;;;;;;;2.80;1.30;;;8.90;99.90;;;;;;5951971;23;20531;-82
2022/03/14 09:15:25;;;;;;;1.95;1.30;;;9.40;99.90;;;;;;6246620;23;20020;-84
2022/03/14 09:17:57;;;;;;;2.83;1.30;;;9.30;99.90;;;;;;6218903;23;20016;-81
2022/03/14 09:20:24;;;;;;;3.08;1.63;;;9.30;99.90;;;;;;6249504;22;20407;-82
2022/03/14 09:22:54;;;;;;;3.25;1.88;;;9.40;99.90;;;;;;6249583;22;20103;-81
2022/03/14 09:25:23;;;;;;;2.63;1.58;;;9.40;99.90;;;;;;6224022;22;20027;-81
2022/03/14 09:27:50;;;;;;;2.85;1.63;;;9.40;99.90;;;;;;6276996;22;20023;-81
2022/03/14 09:30:17;;;;;;;2.95;1.70;;;9.40;99.90;;;;;;6277115;22;20020;-80
2022/03/14 09:32:43;;;;;;;5.28;2.10;;;9.40;99.90;;;;;;6224331;22;20035;-81
2022/03/14 09:35:13;;;;;;;3.53;1.90;;;9.40;99.90;;;;;;6249383;22;20374;-82
2022/03/14 09:37:46;;;;;;;2.33;1.42;;;9.40;99.90;;;;;;6248766;22;20024;-82
2022/03/14 09:40:18;;;;;;;2.40;1.50;;;9.40;99.90;;;;;;6248937;22;20081;-82
2022/03/14 09:42:59;;;;;;;2.47;1.50;;;9.50;99.90;;;;;;6275032;22;20019;-81
2022/03/14 09:45:29;;;;;;;2.17;1.17;;;9.50;99.90;;;;;;6224043;22;20442;-83
2022/03/14 09:55:23;;;;;;;3.42;2.08;;;9.60;99.90;;;;;;6276691;22;20112;-82
2022/03/14 09:58:16;;;;;;;4.82;2.55;;;9.70;99.90;;;;;;6249076;22;20064;-82
2022/03/14 10:01:01;;;;;;;4.63;2.85;;;9.70;99.90;;;;;;6248107;22;20023;-84
2022/03/14 10:03:37;;;;;;;5.30;3.17;;;9.50;99.90;;;;;;6276086;22;20430;-81
2022/03/14 10:06:03;;;;;;;3.85;2.58;;;9.70;99.90;;;;;;6276940;22;20015;-82
2022/03/14 10:08:28;;;;;;;3.90;2.67;;;9.70;99.90;;;;;;6276168;22;20100;-82
2022/03/14 10:10:59;;;;;;;4.80;3.10;;;9.70;99.90;;;;;;6248464;22;20398;-83
2022/03/14 10:14:10;;;;;;;4.93;2.85;;;9.80;99.90;;;;;;6249274;22;20059;-86
2022/03/14 10:21:13;;;;;;;4.65;2.95;;;9.80;99.90;;;;;;6276410;22;20029;-84
2022/03/14 10:23:51;;;;;;;5.15;3.40;;;9.60;99.90;;;;;;6224438;22;20012;-83
2022/03/14 10:30:16;;;;;;;4.85;3.33;;;9.50;99.90;;;;;;6098063;23;20021;-88
2022/03/14 10:38:21;;;;;;;10.85;5.53;;;9.50;99.90;;;;;;6240080;23;20638;-84
2022/03/14 10:54:30;;;;;;;7.75;3.30;;;9.20;99.90;;;;;;6094069;23;20105;-81
2022/03/14 10:58:02;;;;;;;;;;;;;;;;;;;;;
2022/03/14 11:01:22;;;;;;;;;;;;;;;;;;;;;
2022/03/14 11:04:17;;;;;;;9.00;3.78;;;10.10;99.90;;;;;;5951804;24;20028;-82
2022/03/14 11:07:33;;;;;;;10.93;3.78;;;9.70;99.90;;;;;;5930198;24;20091;-85
2022/03/14 11:10:09;;;;;;;9.82;3.70;;;9.30;99.90;;;;;;5869559;24;20010;-82
2022/03/14 11:12:38;;;;;;;9.70;3.10;;;8.90;99.90;;;;;;5928208;24;20021;-82
2022/03/14 11:15:12;;;;;;;6.68;2.38;;;9.80;99.90;;;;;;5928669;24;20048;-83
2022/03/14 11:24:21;;;;;;;9.05;3.10;;;9.60;99.90;;;;;;6236814;22;20059;-80
2022/03/14 11:27:52;;;;;;;8.88;3.70;;;9.50;99.90;;;;;;6152593;23;20451;-81
2022/03/14 11:30:25;;;;;;;8.85;3.38;;;9.60;99.90;;;;;;6032260;23;20046;-80
2022/03/14 11:40:23;;;;;;;7.35;3.20;;;9.50;99.90;;;;;;6036390;23;20063;-82
2022/03/14 11:43:09;;;;;;;10.63;3.08;;;9.50;99.90;;;;;;6034826;23;20023;-84
2022/03/14 11:46:03;;;;;;;6.28;2.08;;;9.90;99.90;;;;;;6009668;23;20059;-83
2022/03/14 11:48:43;;;;;;;6.45;3.00;;;9.20;99.90;;;;;;6010338;23;20019;-83
2022/03/14 11:51:17;;;;;;;6.05;2.45;;;9.60;99.90;;;;;;6035883;23;20019;-83
2022/03/14 11:54:27;;;;;;;4.40;1.92;;;9.60;99.90;;;;;;5979620;24;20437;-83
2022/03/14 12:01:20;;;;;;;6.00;2.40;;;9.60;99.90;;;;;;6264554;22;20051;-85
2022/03/14 12:08:04;;;;;;;4.60;1.92;;;9.80;99.90;;;;;;6275661;22;20011;-84
2022/03/14 12:10:41;;;;;;;6.15;2.30;;;9.70;99.90;;;;;;6198418;22;20020;-85
2022/03/14 12:14:03;;;;;;;8.70;2.53;;;9.70;99.90;;;;;;6245325;22;20039;-84
2022/03/14 12:23:22;;;;;;;7.93;2.83;;;9.90;99.90;;;;;;6234415;22;20031;-81
2022/03/14 12:25:53;;;;;;;7.97;3.15;;;9.90;99.90;;;;;;6220234;23;20024;-81
2022/03/14 12:28:44;;;;;;;7.75;2.88;;;9.90;99.90;;;;;;6245704;23;20078;-81
2022/03/14 12:31:16;;;;;;;4.55;1.58;;;9.80;99.90;;;;;;6244200;23;20012;-81
2022/03/14 12:33:49;;;;;;;6.35;3.10;;;9.80;99.90;;;;;;6247040;22;20016;-82
2022/03/14 12:36:35;;;;;;;6.53;2.40;;;9.80;99.90;;;;;;6218057;23;20102;-82
2022/03/14 12:39:09;;;;;;;;;;;10.70;99.90;;;;;;6246704;22;20020;-81
2022/03/14 12:41:42;;;;;;;5.10;2.70;;;10.10;99.90;;;;;;6245570;23;20250;-84
2022/03/14 12:58:17;;;;;;;4.95;2.60;;;9.80;99.90;;;;;;6235568;22;20031;-82
2022/03/14 13:00:43;;;;;;;6.60;3.28;;;9.70;99.90;;;;;;6220302;22;20019;-81
2022/03/14 13:07:45;;;;;;;15.77;5.20;;;9.80;99.90;;;;;;6277030;22;20015;-81
2022/03/14 13:10:17;;;;;;;9.45;4.57;;;9.90;99.90;;;;;;6224384;22;20012;-82
2022/03/14 13:12:56;;;;;;;11.52;5.53;;;10.10;99.90;;;;;;6249655;22;20358;-81
2022/03/14 13:15:24;;;;;;;14.73;4.80;;;10.00;99.90;;;;;;6249082;22;20516;-81
2022/03/14 13:17:53;;;;;;;12.18;5.05;;;11.20;99.90;;;;;;6275778;22;20027;-81
2022/03/14 13:20:38;;;;;;;16.20;6.63;;;10.20;99.90;;;;;;6249289;22;20070;-82
2022/03/14 13:23:26;;;;;;;12.43;4.80;;;10.10;99.90;;;;;;6227044;22;20026;-83
2022/03/14 13:25:52;;;;;;;;;;;10.30;99.90;;;;;;6250313;22;20031;-83
2022/03/14 13:28:32;;;;;;;17.25;5.72;;;10.00;99.90;;;;;;6276843;22;19916;-83
2022/03/14 13:34:20;;;;;;;14.40;5.03;;;10.30;99.90;;;;;;6276240;22;20417;-81
2022/03/14 13:36:56;;;;;;;9.15;4.07;;;10.30;99.90;;;;;;6248573;22;20026;-81
2022/03/14 13:40:21;;;;;;;12.30;4.25;;;11.00;99.90;;;;;;6223449;22;20020;-81
2022/03/14 13:43:15;;;;;;;8.48;3.42;;;10.40;99.90;;;;;;6276594;22;20027;-81
2022/03/14 13:46:01;;;;;;;15.55;4.30;;;10.80;99.90;;;;;;6223696;22;20390;-81
2022/03/14 13:48:57;;;;;;;6.90;3.65;;;10.60;99.90;;;;;;6265138;22;20016;-81
2022/03/14 13:52:17;;;;;;;9.48;3.55;;;11.20;99.90;;;;;;6249902;22;20074;-81
2022/03/14 13:54:55;;;;;;;8.68;3.00;;;10.80;99.90;;;;;;6182523;22;20027;-82
2022/03/14 13:57:38;;;;;;;11.68;3.53;;;10.90;99.90;;;;;;6223832;22;20015;-82
2022/03/14 14:00:16;;;;;;;7.88;3.67;;;11.00;99.90;;;;;;6248426;22;20022;-82
2022/03/14 14:02:42;;;;;;;12.35;4.15;;;11.00;99.90;;;;;;6248796;22;20454;-81
2022/03/14 14:05:12;;;;;;;10.27;4.18;;;11.20;99.90;;;;;;6276047;22;20012;-81
2022/03/14 14:07:57;;;;;;;11.32;3.78;;;11.10;99.90;;;;;;6249514;22;20342;-81
2022/03/14 14:10:22;;;;;;;10.88;3.90;;;11.20;99.90;;;;;;6248452;22;20026;-81
2022/03/14 14:13:03;;;;;;;7.97;3.28;;;11.30;99.90;;;;;;6276693;22;20027;-83
2022/03/14 14:15:46;;;;;;;9.80;4.22;;;10.90;99.90;;;;;;6224299;22;20438;-82
2022/03/14 14:18:29;;;;;;;10.93;2.67;;;11.30;99.90;;;;;;6275769;22;20047;-82
2022/03/14 14:21:08;;;;;;;7.43;3.05;;;11.40;99.90;;;;;;6274376;22;20089;-82
2022/03/14 14:23:38;;;;;;;8.65;3.15;;;11.40;99.90;;;;;;6217121;22;20082;-81
2022/03/14 14:26:19;;;;;;;12.32;3.78;;;11.40;99.90;;;;;;6248586;22;20016;-81
2022/03/14 14:28:45;;;;;;;8.90;3.13;;;11.60;99.90;;;;;;6248679;22;20073;-81
2022/03/14 14:31:19;;;;;;;12.05;3.65;;;11.60;99.90;;;;;;6186196;23;20020;-82
2022/03/14 14:34:01;;;;;;;8.50;2.88;;;11.70;99.90;;;;;;6211685;23;20027;-82
2022/03/14 14:36:30;;;;;;;10.45;3.08;;;11.60;99.90;;;;;;6162330;23;20051;-82
2022/03/14 14:39:15;;;;;;;5.32;2.22;;;11.80;99.90;;;;;;6184155;23;20106;-83
2022/03/14 14:41:40;;;;;;;14.40;3.15;;;11.80;99.90;;;;;;6160192;23;20023;-81
2022/03/14 14:44:18;;;;;;;6.68;2.20;;;11.90;99.90;;;;;;6187382;23;20455;-82
2022/03/14 14:47:22;;;;;;;5.32;2.03;;;12.00;99.90;;;;;;6212336;23;20043;-81
2022/03/14 14:50:47;;;;;;;7.07;2.17;;;12.20;99.90;;;;;;6186875;23;20023;-81
2022/03/14 14:57:10;;;;;;;9.18;2.28;;;11.40;99.90;;;;;;6127861;23;20365;-81
2022/03/14 14:59:44;;;;;;;7.40;2.00;;;12.20;99.90;;;;;;6102887;23;20048;-82
2022/03/14 15:02:21;;;;;;;8.35;2.08;;;12.50;99.90;;;;;;6132836;23;20028;-81
2022/03/14 15:05:05;;;;;;;12.73;2.65;;;12.80;99.90;;;;;;6186657;23;20026;-81
2022/03/14 15:08:18;;;;;;;6.65;1.67;;;12.30;99.90;;;;;;6187168;23;20075;-82
2022/03/14 15:27:38;;;;;;;;;;;;;;;;;;;;;
2022/03/14 15:57:11;;;;;;;10.25;1.88;;;11.90;99.90;;;;;;6275424;22;20018;-82
2022/03/14 16:54:08;;;;;;;6.55;1.08;;;10.90;99.90;;;;;;6214374;23;20133;-83
2022/03/14 17:00:42;;;;;;;4.05;1.10;;;10.80;99.90;;;;;;6006530;23;20102;-82
2022/03/14 17:12:06;;;;;;;5.53;1.15;;;10.50;99.90;;;;;;6243541;22;20032;-82
2022/03/14 17:20:15;;;;;;;4.88;0.75;;;9.90;99.90;;;;;;6183094;23;20031;-83
2022/03/14 17:22:56;;;;;;;2.83;0.80;;;10.00;99.90;;;;;;6124118;23;20343;-83
2022/03/14 17:25:49;;;;;;;4.40;1.00;;;10.00;99.90;;;;;;6123293;23;20022;-83
2022/03/14 17:28:41;;;;;;;6.82;2.10;;;9.80;99.90;;;;;;6095954;23;20081;-83
2022/03/14 17:31:39;;;;;;;4.80;1.52;;;9.70;99.90;;;;;;6051411;23;20018;-83
2022/03/14 17:34:22;;;;;;;5.25;1.23;;;9.60;99.90;;;;;;6098816;23;20018;-81
2022/03/14 17:36:51;;;;;;;8.50;1.88;;;9.50;99.90;;;;;;6099434;23;20470;-82
2022/03/14 17:39:22;;;;;;;8.50;1.92;;;9.70;99.90;;;;;;6099972;23;20469;-81
2022/03/14 17:41:51;;;;;;;3.63;1.00;;;9.30;99.90;;;;;;6099504;23;20022;-82
2022/03/14 17:44:22;;;;;;;3.25;0.70;;;9.20;99.90;;;;;;6123873;23;20025;-81
2022/03/14 17:46:48;;;;;;;5.10;0.98;;;9.10;99.90;;;;;;6124038;23;20044;-80
2022/03/14 17:49:37;;;;;;;4.20;0.90;;;9.10;99.90;;;;;;6123838;23;20539;-81
2022/03/14 17:52:21;;;;;;;2.95;0.70;;;8.90;99.90;;;;;;6103139;23;20025;-81
2022/03/14 17:55:02;;;;;;;5.45;1.98;;;8.90;99.90;;;;;;6105357;23;20017;-81
2022/03/14 17:57:34;;;;;;;4.55;0.90;;;9.30;99.90;;;;;;6148946;23;20024;-81
2022/03/14 18:00:11;;;;;;;3.90;1.27;;;9.00;99.90;;;;;;6244689;23;20022;-81
2022/03/14 18:02:45;;;;;;;6.20;1.00;;;8.60;99.90;;;;;;6242451;23;20512;-81
2022/03/14 18:05:14;;;;;;;2.50;0.90;;;8.50;99.90;;;;;;6243592;23;20020;-81
2022/03/14 18:07:45;;;;;;;3.83;1.00;;;9.40;99.90;;;;;;6243767;23;20016;-81
2022/03/14 18:10:19;;;;;;;5.68;1.00;;;8.40;99.90;;;;;;6219689;23;20091;-81
2022/03/14 18:12:45;;;;;;;4.47;0.93;;;8.30;99.90;;;;;;6243997;23;20059;-81
2022/03/14 18:15:15;;;;;;;3.85;0.80;;;8.10;99.90;;;;;;6242659;23;20016;-81
2022/03/14 18:17:56;;;;;;;4.13;1.25;;;8.00;99.90;;;;;;6219345;23;20473;-81
2022/03/14 18:20:39;;;;;;;3.80;1.00;;;7.90;99.90;;;;;;6244335;23;20027;-83
2022/03/14 18:23:17;;;;;;;3.20;1.08;;;7.40;99.90;;;;;;6243691;22;20020;-81
2022/03/14 18:25:49;;;;;;;3.03;1.30;;;8.30;99.90;;;;;;6245803;22;20064;-81
2022/03/14 18:38:56;;;;;;;;;;;;;;;;;;;;;
2022/03/14 18:47:00;;;;;;;3.80;1.20;;;7.40;99.90;;;;;;6275849;22;20074;-83
2022/03/14 18:53:17;;;;;;;6.50;1.75;;;7.10;99.90;;;;;;6276150;22;20476;-84
2022/03/14 18:55:43;;;;;;;2.17;1.05;;;7.30;99.90;;;;;;6248454;22;20123;-84
2022/03/14 19:03:18;;;;;;;7.68;1.30;;;7.00;99.90;;;;;;6122614;23;20056;-84
2022/03/14 19:09:42;;;;;;;6.53;1.10;;;6.20;99.90;;;;;;5870129;24;20060;-84
2022/03/14 19:12:09;;;;;;;8.40;1.45;;;6.90;99.90;;;;;;5847619;24;20447;-85
2022/03/14 19:14:35;;;;;;;4.82;1.50;;;6.40;99.90;;;;;;5847426;24;20018;-83
2022/03/14 19:17:01;;;;;;;5.07;1.38;;;6.80;99.90;;;;;;5846909;24;20013;-86
2022/03/14 19:19:27;;;;;;;6.07;1.90;;;7.30;99.90;;;;;;5847353;24;20017;-86
2022/03/14 19:21:53;;;;;;;5.03;1.63;;;6.70;99.90;;;;;;5847115;24;20014;-85
2022/03/14 19:30:20;;;;;;;7.93;1.55;;;6.60;99.90;;;;;;6242372;22;20024;-83
2022/03/14 19:33:21;;;;;;;5.40;1.60;;;6.40;99.90;;;;;;6217890;23;20073;-84
2022/03/14 19:35:48;;;;;;;8.75;1.80;;;6.40;99.90;;;;;;6242884;23;20020;-86
2022/03/14 19:38:17;;;;;;;3.30;1.45;;;7.50;99.90;;;;;;6243768;23;20020;-84
2022/03/14 19:40:46;;;;;;;4.22;1.85;;;6.90;99.90;;;;;;6238796;22;20016;-84
2022/03/14 19:43:15;;;;;;;4.88;1.30;;;6.60;99.90;;;;;;6242922;23;20020;-85
2022/03/14 19:45:49;;;;;;;4.70;1.00;;;6.30;99.90;;;;;;6218224;23;20019;-84
2022/03/14 19:48:21;;;;;;;4.18;1.10;;;6.30;99.90;;;;;;6245203;22;20019;-86
2022/03/14 19:50:53;;;;;;;3.60;1.15;;;5.60;99.90;;;;;;6242793;23;20069;-85
2022/03/14 19:53:24;;;;;;;4.65;1.35;;;6.20;99.90;;;;;;6240912;23;20020;-86
2022/03/14 19:55:50;;;;;;;5.10;1.10;;;6.80;99.90;;;;;;6243452;23;20020;-85
2022/03/14 19:58:17;;;;;;;7.82;1.17;;;6.10;99.90;;;;;;6242653;22;20020;-85
2022/03/14 20:00:47;;;;;;;4.13;1.30;;;6.80;99.90;;;;;;6243035;23;20066;-86
2022/03/14 20:03:18;;;;;;;5.68;1.10;;;6.00;99.90;;;;;;6242634;23;20093;-82
2022/03/14 20:06:12;;;;;;;4.10;1.10;;;6.30;99.90;;;;;;6244490;22;20446;-86
2022/03/14 20:08:38;;;;;;;5.05;1.00;;;7.30;99.90;;;;;;6166886;23;20390;-85
2022/03/14 20:11:04;;;;;;;7.70;1.27;;;6.00;99.90;;;;;;6217429;23;20027;-85
2022/03/14 20:13:36;;;;;;;4.20;1.25;;;6.20;99.90;;;;;;6214430;23;20544;-86
2022/03/14 20:16:07;;;;;;;2.95;1.00;;;5.80;99.90;;;;;;6243045;23;20023;-86
2022/03/14 20:18:33;;;;;;;4.03;1.00;;;5.90;99.90;;;;;;6244840;23;20048;-86
2022/03/14 20:20:59;;;;;;;9.80;1.15;;;6.30;99.90;;;;;;6216390;23;20572;-87
2022/03/14 20:23:26;;;;;;;2.90;1.02;;;6.90;99.90;;;;;;6241926;23;20023;-88
2022/03/14 20:25:51;;;;;;;5.55;1.35;;;5.00;99.90;;;;;;6217430;23;20024;-86
2022/03/14 20:28:20;;;;;;;7.20;2.13;;;5.60;99.90;;;;;;6242436;22;20020;-87
2022/03/14 20:30:49;;;;;;;8.35;2.28;;;5.90;99.90;;;;;;6242521;23;20461;-86
2022/03/14 20:33:15;;;;;;;8.20;2.33;;;5.60;99.90;;;;;;6242362;23;20078;-83
2022/03/14 20:35:41;;;;;;;4.28;1.40;;;6.80;99.90;;;;;;6244067;22;20447;-85
2022/03/14 20:38:07;;;;;;;4.88;1.70;;;4.70;99.90;;;;;;6242795;23;20020;-86
2022/03/14 20:40:33;;;;;;;7.72;1.75;;;6.10;99.90;;;;;;6244279;23;20018;-86
2022/03/14 20:42:58;;;;;;;6.00;1.52;;;5.50;99.90;;;;;;6244270;23;20396;-86
2022/03/14 20:45:24;;;;;;;4.80;1.40;;;6.50;99.90;;;;;;6219542;23;20024;-86
2022/03/14 20:47:52;;;;;;;7.43;1.30;;;5.40;99.90;;;;;;6246282;22;20078;-87
2022/03/14 20:50:21;;;;;;;5.57;1.80;;;6.60;99.90;;;;;;6245796;23;20067;-85
2022/03/14 20:52:50;;;;;;;3.92;1.50;;;5.30;99.90;;;;;;6244406;23;20020;-86
2022/03/14 20:55:16;;;;;;;6.88;2.38;;;5.20;99.90;;;;;;6244379;23;20019;-84
2022/03/14 20:57:43;;;;;;;6.30;1.90;;;5.20;99.90;;;;;;6245877;23;20024;-85
2022/03/14 21:00:10;;;;;;;6.47;1.40;;;6.50;99.90;;;;;;6244359;22;20019;-86
2022/03/14 21:05:23;;;;;;;8.35;1.70;;;5.70;99.90;;;;;;6245512;23;20134;-85
2022/03/14 21:07:48;;;;;;;4.55;1.45;;;5.90;99.90;;;;;;6246224;22;20019;-86
2022/03/14 21:10:14;;;;;;;3.38;1.15;;;5.40;99.90;;;;;;6246236;22;20016;-85
2022/03/14 21:12:45;;;;;;;4.45;1.40;;;5.40;99.90;;;;;;6245472;23;20016;-85
2022/03/14 21:15:15;;;;;;;4.72;1.60;;;4.90;99.90;;;;;;6244552;23;20020;-86
2022/03/14 21:17:41;;;;;;;8.52;1.73;;;4.80;99.90;;;;;;6244907;23;20020;-85
2022/03/14 21:20:07;;;;;;;4.40;1.75;;;4.80;99.90;;;;;;6244112;23;20032;-86
2022/03/14 21:22:33;;;;;;;4.07;1.70;;;4.70;99.90;;;;;;6246161;22;20020;-86
2022/03/14 21:24:59;;;;;;;6.25;1.73;;;4.70;99.90;;;;;;6245868;23;20791;-87
2022/03/14 21:27:25;;;;;;;8.73;2.13;;;4.70;99.90;;;;;;6245127;23;20091;-84
2022/03/14 21:29:51;;;;;;;3.03;1.30;;;5.20;99.90;;;;;;6218764;23;20028;-87
2022/03/14 21:32:17;;;;;;;4.65;1.63;;;4.60;99.90;;;;;;6243965;23;20044;-86
2022/03/14 21:34:44;;;;;;;4.35;1.50;;;4.60;99.90;;;;;;6244231;23;20469;-88
2022/03/14 21:37:09;;;;;;;5.85;1.83;;;4.30;99.90;;;;;;6246402;22;20599;-84
2022/03/14 21:39:35;;;;;;;3.85;0.90;;;4.50;99.90;;;;;;6244135;23;20046;-86
2022/03/14 21:42:01;;;;;;;2.72;1.15;;;4.90;99.90;;;;;;6246481;22;20074;-86
2022/03/14 21:44:29;;;;;;;5.18;1.25;;;4.10;99.90;;;;;;6244540;23;20013;-86
2022/03/14 21:46:55;;;;;;;5.80;1.80;;;4.50;99.90;;;;;;6246562;23;20024;-87
2022/03/14 21:49:21;;;;;;;6.78;1.70;;;5.20;99.90;;;;;;6247174;22;20024;-86
2022/03/14 21:51:50;;;;;;;6.43;1.95;;;4.20;99.90;;;;;;6245714;22;20024;-84
2022/03/14 21:54:16;;;;;;;3.25;1.30;;;3.60;99.90;;;;;;6244332;23;20346;-87
2022/03/14 21:56:43;;;;;;;4.13;1.27;;;4.50;99.90;;;;;;6244251;23;20095;-88
2022/03/14 21:59:10;;;;;;;5.25;1.52;;;3.80;99.90;;;;;;6244081;22;20016;-86
2022/03/14 22:01:40;;;;;;;6.80;1.52;;;3.60;99.90;;;;;;6244652;23;20070;-84
2022/03/14 22:04:11;;;;;;;5.95;1.52;;;3.50;99.90;;;;;;6219568;23;20016;-85
2022/03/14 22:06:50;;;;;;;2.92;1.58;;;4.00;99.90;;;;;;6246061;22;20316;-85
2022/03/14 22:09:17;;;;;;;4.72;1.23;;;5.20;99.90;;;;;;6245838;22;20091;-86
2022/03/14 22:11:43;;;;;;;2.75;1.48;;;4.30;99.90;;;;;;6244251;23;20095;-87
2022/03/14 22:14:09;;;;;;;4.25;1.23;;;4.00;99.90;;;;;;6244303;23;20047;-84
2022/03/14 22:16:36;;;;;;;6.88;1.98;;;3.80;99.90;;;;;;6245650;23;20023;-85
2022/03/14 22:19:04;;;;;;;2.13;1.20;;;3.70;99.90;;;;;;6244463;23;20026;-84
2022/03/14 22:21:30;;;;;;;2.08;1.02;;;5.00;99.90;;;;;;6244857;23;20343;-81
2022/03/14 22:23:57;;;;;;;3.55;1.20;;;4.20;99.90;;;;;;6246200;22;20027;-82
2022/03/14 22:26:24;;;;;;;2.20;1.10;;;3.70;99.90;;;;;;6244150;23;20051;-82
2022/03/14 22:28:50;;;;;;;3.78;1.30;;;4.70;99.90;;;;;;6244982;22;20106;-83
2022/03/14 22:31:16;;;;;;;3.20;1.17;;;4.70;99.90;;;;;;6245443;22;20335;-84
2022/03/14 22:33:43;;;;;;;4.15;1.17;;;4.60;99.90;;;;;;6218496;23;20028;-83
2022/03/14 22:36:10;;;;;;;3.83;1.55;;;3.40;99.90;;;;;;6218989;23;20351;-83
2022/03/14 22:38:36;;;;;;;3.25;1.77;;;4.10;99.90;;;;;;6246061;22;20016;-84
2022/03/14 22:41:02;;;;;;;4.45;1.42;;;4.40;99.90;;;;;;6245648;23;20091;-84
2022/03/14 22:43:28;;;;;;;2.53;1.30;;;3.40;99.90;;;;;;6244228;23;20020;-86
2022/03/14 22:45:53;;;;;;;2.60;1.60;;;3.10;99.90;;;;;;6245828;23;20086;-84
2022/03/14 22:48:20;;;;;;;2.50;1.15;;;3.70;99.90;;;;;;6244177;23;20020;-86
2022/03/14 22:50:46;;;;;;;3.22;1.25;;;4.50;99.90;;;;;;6245772;22;20079;-86
2022/03/14 22:53:14;;;;;;;6.65;1.50;;;3.50;99.90;;;;;;6245820;22;20099;-85
2022/03/14 22:55:44;;;;;;;5.50;1.38;;;4.40;99.90;;;;;;6245956;22;20091;-85
2022/03/14 22:58:14;;;;;;;4.20;1.20;;;3.50;99.90;;;;;;6243750;22;20019;-83
2022/03/14 23:00:41;;;;;;;4.90;1.40;;;3.40;99.90;;;;;;6244322;23;20067;-84
2022/03/14 23:06:03;;;;;;;4.90;1.40;;;4.40;99.90;;;;;;6245614;23;20501;-85
2022/03/14 23:08:35;;;;;;;3.95;1.45;;;3.40;99.90;;;;;;6245286;23;20020;-88
2022/03/14 23:14:31;;;;;;;3.35;1.25;;;3.60;99.90;;;;;;6241804;22;20025;-84
2022/03/14 23:32:45;;;;;;;5.05;1.60;;;2.90;99.90;;;;;;6066641;23;20030;-83
2022/03/14 23:59:56;;;;;;;6.30;1.75;;;3.20;99.90;;;;;;5747197;24;20034;-84
